Time;durP1;ratioP1;P1;durP2;ratioP2;P2;SDS_P1;SDS_P2;PMS_P1;PMS_P2;Temp;Humidity;BMP_temperature;BMP_pressure;BME280_temperature;BME280_humidity;BME280_pressure;Samples;Min_cycle;Max_cycle;Signal;HPM_P1;HPM_P2
2023/09/03 00:00:38;;;;;;;3.72;2.30;;;16.50;99.90;;;;;;5115668;28;20098;-65
2023/09/03 00:03:04;;;;;;;3.45;2.72;;;16.50;99.90;;;;;;5098026;28;20080;-67
2023/09/03 00:05:30;;;;;;;2.72;2.45;;;16.50;99.90;;;;;;5097638;28;20081;-65
2023/09/03 00:07:56;;;;;;;4.47;2.63;;;16.50;99.90;;;;;;5114657;28;20460;-65
2023/09/03 00:10:21;;;;;;;4.15;2.65;;;16.50;99.90;;;;;;5114217;28;20061;-65
2023/09/03 00:12:47;;;;;;;2.65;2.15;;;16.50;99.90;;;;;;5113884;28;20026;-65
2023/09/03 00:15:13;;;;;;;4.25;2.92;;;16.60;99.90;;;;;;5116272;28;20349;-65
2023/09/03 00:17:39;;;;;;;4.22;2.30;;;16.60;99.90;;;;;;5117002;28;20402;-65
2023/09/03 00:20:05;;;;;;;2.95;2.67;;;16.60;99.90;;;;;;5098911;28;20024;-65
2023/09/03 00:22:31;;;;;;;4.30;2.55;;;16.50;99.90;;;;;;5117094;28;20024;-65
2023/09/03 00:24:56;;;;;;;3.03;2.63;;;16.60;99.90;;;;;;5099101;28;20452;-65
2023/09/03 00:27:23;;;;;;;5.43;2.85;;;16.60;99.90;;;;;;5116875;28;20502;-66
2023/09/03 00:29:48;;;;;;;3.83;2.67;;;16.60;99.90;;;;;;5117289;28;20016;-65
2023/09/03 00:32:14;;;;;;;3.97;2.22;;;16.60;99.90;;;;;;5117385;28;20099;-65
2023/09/03 00:34:39;;;;;;;2.65;2.35;;;16.60;99.90;;;;;;5100272;28;20043;-65
2023/09/03 00:37:05;;;;;;;5.15;2.60;;;16.60;99.90;;;;;;5122367;28;20085;-65
2023/09/03 00:39:31;;;;;;;6.38;3.03;;;16.60;99.90;;;;;;5103509;28;20062;-66
2023/09/03 00:41:56;;;;;;;3.08;2.78;;;16.60;99.90;;;;;;5101420;28;20476;-66
2023/09/03 00:44:22;;;;;;;5.18;2.83;;;16.50;99.90;;;;;;5117669;28;20019;-65
2023/09/03 00:46:48;;;;;;;3.95;3.17;;;16.50;99.90;;;;;;5099254;28;20112;-65
2023/09/03 00:49:21;;;;;;;4.47;2.60;;;16.60;99.90;;;;;;5118136;28;20464;-66
2023/09/03 00:51:46;;;;;;;4.00;2.55;;;16.60;99.90;;;;;;5118061;28;20309;-67
2023/09/03 00:54:12;;;;;;;8.63;2.60;;;16.60;99.90;;;;;;5121237;28;20054;-65
2023/09/03 00:56:39;;;;;;;4.93;2.40;;;16.60;99.90;;;;;;5121727;28;20027;-65
2023/09/03 00:59:06;;;;;;;4.00;2.33;;;16.60;99.90;;;;;;5120602;28;20028;-65
2023/09/03 01:01:32;;;;;;;6.47;3.22;;;16.60;99.90;;;;;;5102299;28;20019;-65
2023/09/03 01:03:57;;;;;;;2.63;2.38;;;16.60;99.90;;;;;;5121650;28;20035;-66
2023/09/03 01:06:25;;;;;;;6.05;2.70;;;16.60;99.90;;;;;;5101715;28;20369;-65
2023/09/03 01:08:51;;;;;;;3.55;2.60;;;16.60;99.90;;;;;;5102281;28;20574;-66
2023/09/03 01:11:27;;;;;;;4.15;2.20;;;16.60;99.90;;;;;;5119224;28;20019;-65
2023/09/03 01:14:04;;;;;;;6.57;2.42;;;16.60;99.90;;;;;;5117794;28;20102;-65
2023/09/03 01:16:39;;;;;;;4.30;2.85;;;16.70;99.90;;;;;;5117696;28;20045;-66
2023/09/03 01:19:29;;;;;;;4.40;3.33;;;16.70;99.90;;;;;;5117410;28;20019;-66
2023/09/03 01:22:01;;;;;;;2.67;2.40;;;16.70;99.90;;;;;;5102606;28;20020;-65
2023/09/03 01:24:57;;;;;;;3.10;2.80;;;16.70;99.90;;;;;;5119386;28;20098;-65
2023/09/03 01:27:42;;;;;;;4.35;2.58;;;16.80;99.90;;;;;;5100979;28;20031;-65
2023/09/03 01:30:08;;;;;;;6.15;3.13;;;16.70;99.90;;;;;;5119164;28;20079;-66
2023/09/03 01:32:37;;;;;;;2.97;2.35;;;16.70;99.90;;;;;;5117624;28;20063;-65
2023/09/03 01:35:04;;;;;;;3.60;2.42;;;16.70;99.90;;;;;;5117213;28;20115;-65
2023/09/03 01:37:30;;;;;;;4.30;2.50;;;16.70;99.90;;;;;;5117577;28;20031;-65
2023/09/03 01:39:55;;;;;;;3.88;2.60;;;16.60;99.90;;;;;;5098704;28;20023;-65
2023/09/03 01:42:21;;;;;;;4.50;2.65;;;16.60;99.90;;;;;;5117000;28;20024;-65
2023/09/03 01:44:47;;;;;;;5.30;2.67;;;16.50;99.90;;;;;;5097878;28;20019;-65
2023/09/03 01:47:27;;;;;;;3.13;2.50;;;16.50;99.90;;;;;;5116312;28;20024;-65
2023/09/03 01:50:23;;;;;;;7.22;3.08;;;16.50;99.90;;;;;;5118831;28;20099;-65
2023/09/03 01:53:12;;;;;;;5.00;2.38;;;16.40;99.90;;;;;;5101156;28;20465;-65
2023/09/03 01:55:41;;;;;;;5.22;2.90;;;16.30;99.90;;;;;;5118099;28;20031;-65
2023/09/03 01:58:09;;;;;;;5.75;2.30;;;16.30;99.90;;;;;;5117565;28;20027;-65
2023/09/03 02:00:36;;;;;;;5.82;2.53;;;16.30;99.90;;;;;;5117731;28;20054;-65
2023/09/03 02:03:03;;;;;;;3.17;2.70;;;16.20;99.90;;;;;;5100843;28;20350;-65
2023/09/03 02:05:29;;;;;;;6.47;2.88;;;16.10;99.90;;;;;;5100481;28;20452;-65
2023/09/03 02:07:54;;;;;;;3.85;2.90;;;16.10;99.90;;;;;;5118146;28;20027;-65
2023/09/03 02:10:20;;;;;;;2.75;2.47;;;16.10;99.90;;;;;;5117208;28;20028;-65
2023/09/03 02:12:46;;;;;;;5.07;2.85;;;16.00;99.90;;;;;;5116993;28;20022;-64
2023/09/03 02:15:11;;;;;;;3.90;2.85;;;16.00;99.90;;;;;;5099147;28;20027;-65
2023/09/03 02:17:37;;;;;;;3.15;2.70;;;16.00;99.90;;;;;;5118549;28;20102;-64
2023/09/03 02:20:03;;;;;;;4.45;3.17;;;16.00;99.90;;;;;;5117972;28;20026;-65
2023/09/03 02:22:29;;;;;;;3.10;2.80;;;16.00;99.90;;;;;;5117314;28;20099;-64
2023/09/03 02:24:54;;;;;;;4.50;3.03;;;15.90;99.90;;;;;;5117360;28;20305;-64
2023/09/03 02:27:20;;;;;;;4.72;2.90;;;15.90;99.90;;;;;;5098437;28;20449;-65
2023/09/03 02:29:46;;;;;;;3.95;3.10;;;15.90;99.90;;;;;;5116358;28;20035;-65
2023/09/03 02:32:11;;;;;;;5.25;3.00;;;15.90;99.90;;;;;;5098018;28;20026;-65
2023/09/03 02:34:37;;;;;;;7.38;3.33;;;15.80;99.90;;;;;;5098183;28;20019;-65
2023/09/03 02:37:03;;;;;;;4.50;3.30;;;15.80;99.90;;;;;;5097535;28;20076;-65
2023/09/03 02:39:29;;;;;;;4.50;3.28;;;15.80;99.90;;;;;;5115249;28;20022;-65
2023/09/03 02:41:54;;;;;;;4.70;3.20;;;15.80;99.90;;;;;;5096786;28;20449;-65
2023/09/03 02:44:20;;;;;;;6.00;3.28;;;15.80;99.90;;;;;;5114549;28;20481;-64
2023/09/03 02:46:46;;;;;;;3.20;2.90;;;15.80;99.90;;;;;;5096349;28;20030;-65
2023/09/03 02:49:11;;;;;;;5.88;3.35;;;15.80;99.90;;;;;;5114906;28;20054;-65
2023/09/03 02:51:40;;;;;;;5.70;3.00;;;15.80;99.90;;;;;;5096326;28;20040;-65
2023/09/03 02:54:06;;;;;;;3.28;2.97;;;15.80;99.90;;;;;;5114749;28;20024;-65
2023/09/03 02:56:32;;;;;;;4.35;3.13;;;15.70;99.90;;;;;;5115082;28;20534;-65
2023/09/03 02:58:58;;;;;;;4.13;2.92;;;15.70;99.90;;;;;;5114944;28;20016;-65
2023/09/03 03:01:23;;;;;;;6.35;3.47;;;15.70;99.90;;;;;;5096665;28;20047;-64
2023/09/03 03:03:49;;;;;;;6.05;3.30;;;15.60;99.90;;;;;;5114394;28;20035;-65
2023/09/03 03:06:15;;;;;;;3.75;3.45;;;15.60;99.90;;;;;;5096286;28;20026;-65
2023/09/03 03:08:42;;;;;;;5.80;3.38;;;15.60;99.90;;;;;;5096434;28;20024;-65
2023/09/03 03:11:11;;;;;;;3.45;3.20;;;15.60;99.90;;;;;;5114434;28;20031;-65
2023/09/03 03:13:45;;;;;;;7.70;3.45;;;15.60;99.90;;;;;;5114993;28;20030;-64
2023/09/03 03:16:14;;;;;;;7.93;3.13;;;15.70;99.90;;;;;;5096075;28;20070;-65
2023/09/03 03:18:42;;;;;;;4.75;3.65;;;15.60;99.90;;;;;;5114131;28;20113;-65
2023/09/03 03:21:09;;;;;;;5.00;3.40;;;15.70;99.90;;;;;;5114791;28;20467;-64
2023/09/03 03:23:36;;;;;;;5.38;3.17;;;15.70;99.90;;;;;;5114103;28;20031;-65
2023/09/03 03:26:03;;;;;;;4.45;3.15;;;15.70;99.90;;;;;;5114201;28;20020;-65
2023/09/03 03:28:33;;;;;;;5.55;3.25;;;15.80;99.90;;;;;;5096014;28;20480;-65
2023/09/03 03:31:13;;;;;;;4.40;3.17;;;15.80;99.90;;;;;;5095957;28;20037;-64
2023/09/03 03:33:39;;;;;;;4.25;3.10;;;15.80;99.90;;;;;;5096198;28;20020;-65
2023/09/03 03:36:06;;;;;;;3.20;2.90;;;15.80;99.90;;;;;;5114378;28;20053;-65
2023/09/03 03:38:31;;;;;;;4.55;3.35;;;15.80;99.90;;;;;;5096133;28;20341;-65
2023/09/03 03:41:23;;;;;;;4.97;3.20;;;15.80;99.90;;;;;;5095504;28;20022;-65
2023/09/03 03:43:50;;;;;;;4.43;3.10;;;15.70;99.90;;;;;;5109532;28;20038;-65
2023/09/03 03:46:18;;;;;;;4.40;3.40;;;15.70;99.90;;;;;;5114222;28;20065;-65
2023/09/03 03:48:44;;;;;;;5.75;3.50;;;15.60;99.90;;;;;;5096017;28;20096;-65
2023/09/03 03:51:10;;;;;;;3.35;2.97;;;15.60;99.90;;;;;;5099334;28;20040;-65
2023/09/03 03:53:36;;;;;;;4.18;3.53;;;15.70;99.90;;;;;;5099969;28;20443;-65
2023/09/03 03:56:04;;;;;;;4.15;3.17;;;15.70;99.90;;;;;;5117882;28;20023;-65
2023/09/03 03:58:32;;;;;;;3.38;3.08;;;15.80;99.90;;;;;;5117851;28;20023;-65
2023/09/03 04:00:57;;;;;;;2.80;2.60;;;15.80;99.90;;;;;;5117603;28;20016;-64
2023/09/03 04:03:27;;;;;;;4.22;3.10;;;15.80;99.90;;;;;;5117773;28;20390;-64
2023/09/03 04:06:00;;;;;;;4.82;3.00;;;15.90;99.90;;;;;;5117617;28;20457;-66
2023/09/03 04:08:34;;;;;;;3.35;2.90;;;16.00;99.90;;;;;;5117291;28;20019;-65
2023/09/03 04:11:04;;;;;;;6.90;2.65;;;16.00;99.90;;;;;;5117834;28;20360;-65
2023/09/03 04:13:31;;;;;;;5.22;3.28;;;16.10;99.90;;;;;;5099707;28;20039;-65
2023/09/03 04:15:58;;;;;;;2.65;2.42;;;16.10;99.90;;;;;;5117241;28;20106;-65
2023/09/03 04:18:25;;;;;;;3.33;2.75;;;16.10;99.90;;;;;;5099883;28;20043;-65
2023/09/03 04:20:55;;;;;;;2.67;2.47;;;16.10;99.90;;;;;;5098927;28;20054;-65
2023/09/03 04:23:21;;;;;;;3.28;2.95;;;16.20;99.90;;;;;;5098930;28;20020;-65
2023/09/03 04:25:47;;;;;;;3.55;2.60;;;16.20;99.90;;;;;;5117117;28;20027;-65
2023/09/03 04:28:13;;;;;;;4.60;2.42;;;16.20;99.90;;;;;;5099018;28;20024;-65
2023/09/03 04:30:40;;;;;;;2.80;2.40;;;16.30;99.90;;;;;;5117185;28;20031;-65
2023/09/03 04:33:07;;;;;;;4.60;4.15;;;16.30;99.90;;;;;;5117121;28;20015;-64
2023/09/03 04:35:34;;;;;;;3.47;2.85;;;16.30;99.90;;;;;;5098869;28;20023;-65
2023/09/03 04:38:00;;;;;;;3.17;2.13;;;16.40;99.90;;;;;;5099465;28;20022;-65
2023/09/03 04:40:25;;;;;;;2.90;2.53;;;16.40;99.90;;;;;;5100366;28;20051;-65
2023/09/03 04:42:51;;;;;;;3.10;2.55;;;16.40;99.90;;;;;;5118682;28;20452;-65
2023/09/03 04:45:17;;;;;;;4.45;2.75;;;16.40;99.90;;;;;;5118332;28;20092;-65
2023/09/03 04:47:44;;;;;;;5.30;2.70;;;16.40;99.90;;;;;;5099885;28;20023;-65
2023/09/03 04:50:10;;;;;;;2.42;2.22;;;16.50;99.90;;;;;;5117520;28;20030;-65
2023/09/03 04:52:36;;;;;;;5.57;2.50;;;16.50;99.90;;;;;;5098984;28;20023;-65
2023/09/03 04:55:01;;;;;;;3.97;2.58;;;16.60;99.90;;;;;;5098582;28;20103;-65
2023/09/03 04:57:28;;;;;;;14.70;3.40;;;16.60;99.90;;;;;;5098502;28;20023;-65
2023/09/03 04:59:53;;;;;;;2.50;2.30;;;16.70;99.90;;;;;;5116575;28;20344;-65
2023/09/03 05:02:19;;;;;;;3.97;2.63;;;16.70;99.90;;;;;;5115300;28;20016;-65
2023/09/03 05:04:45;;;;;;;3.33;2.75;;;16.70;99.90;;;;;;5098375;28;20088;-65
2023/09/03 05:07:10;;;;;;;4.18;2.22;;;16.80;99.90;;;;;;5098117;28;20361;-65
2023/09/03 05:09:36;;;;;;;3.55;2.60;;;16.80;99.90;;;;;;5116114;28;20032;-65
2023/09/03 05:12:01;;;;;;;2.90;2.70;;;16.90;99.90;;;;;;5116102;28;20054;-65
2023/09/03 05:14:27;;;;;;;2.92;2.63;;;16.90;99.90;;;;;;5116507;28;20441;-65
2023/09/03 05:16:53;;;;;;;4.28;2.33;;;17.00;99.90;;;;;;5116182;28;20023;-65
2023/09/03 05:19:18;;;;;;;7.38;2.88;;;17.10;99.90;;;;;;5116466;28;20474;-65
2023/09/03 05:21:44;;;;;;;7.68;3.53;;;17.10;99.90;;;;;;5116397;28;20030;-65
2023/09/03 05:24:10;;;;;;;4.05;2.90;;;17.20;99.90;;;;;;5098438;28;20404;-65
2023/09/03 05:26:36;;;;;;;3.95;2.70;;;17.20;99.90;;;;;;5116295;28;20015;-65
2023/09/03 05:29:02;;;;;;;4.55;2.60;;;17.20;99.90;;;;;;5116076;28;20051;-65
2023/09/03 05:31:30;;;;;;;3.83;2.90;;;17.30;99.90;;;;;;5116250;28;20452;-65
2023/09/03 05:34:00;;;;;;;4.60;3.37;;;17.30;99.90;;;;;;5097846;28;20051;-65
2023/09/03 05:36:26;;;;;;;4.68;2.67;;;17.40;99.90;;;;;;5115919;28;20364;-65
2023/09/03 05:38:52;;;;;;;3.35;2.75;;;17.40;99.90;;;;;;5116238;28;20027;-65
2023/09/03 05:41:18;;;;;;;4.03;2.53;;;17.40;99.90;;;;;;5116004;28;20023;-65
2023/09/03 05:43:43;;;;;;;8.52;2.70;;;17.50;99.90;;;;;;5097410;28;20341;-65
2023/09/03 05:46:09;;;;;;;2.92;2.50;;;17.50;99.90;;;;;;5115396;28;20468;-65
2023/09/03 05:48:35;;;;;;;4.65;2.60;;;17.60;99.90;;;;;;5097586;28;20038;-65
2023/09/03 05:51:05;;;;;;;2.38;2.17;;;17.70;99.90;;;;;;5115416;28;20533;-64
2023/09/03 05:53:31;;;;;;;4.65;2.35;;;17.70;99.90;;;;;;5115359;28;20024;-63
2023/09/03 05:56:08;;;;;;;2.90;2.20;;;17.80;99.90;;;;;;5097087;28;20031;-63
2023/09/03 05:58:33;;;;;;;4.82;2.30;;;17.90;99.90;;;;;;5115352;28;20023;-64
2023/09/03 06:01:06;;;;;;;2.90;2.17;;;18.00;99.90;;;;;;5115042;28;20521;-63
2023/09/03 06:03:32;;;;;;;5.07;2.33;;;18.10;99.90;;;;;;5097331;28;20406;-63
2023/09/03 06:06:09;;;;;;;3.00;2.40;;;18.20;99.90;;;;;;5096779;28;20019;-63
2023/09/03 06:08:36;;;;;;;2.20;2.00;;;18.20;99.90;;;;;;5096435;28;20028;-63
2023/09/03 06:11:02;;;;;;;3.15;2.10;;;18.30;99.90;;;;;;5114835;28;20514;-63
2023/09/03 06:13:29;;;;;;;3.92;2.10;;;18.30;99.90;;;;;;5114389;28;20429;-61
2023/09/03 06:15:56;;;;;;;3.83;2.22;;;18.30;99.90;;;;;;5114995;28;20111;-62
2023/09/03 06:18:23;;;;;;;3.53;1.73;;;18.30;99.90;;;;;;5115027;28;20059;-62
2023/09/03 06:20:49;;;;;;;2.28;2.08;;;18.30;99.90;;;;;;5114658;28;20445;-65
2023/09/03 06:23:21;;;;;;;2.20;2.00;;;18.30;99.90;;;;;;5114677;28;20415;-65
2023/09/03 06:25:50;;;;;;;3.83;2.22;;;18.30;99.90;;;;;;5096668;28;20122;-65
2023/09/03 06:28:15;;;;;;;2.63;1.92;;;18.30;99.90;;;;;;5096780;28;20024;-65
2023/09/03 06:30:42;;;;;;;2.40;2.20;;;18.40;99.90;;;;;;5114897;28;20077;-64
2023/09/03 06:33:08;;;;;;;2.47;1.88;;;18.40;99.90;;;;;;5096525;28;20023;-64
2023/09/03 06:35:34;;;;;;;4.50;1.92;;;18.50;99.90;;;;;;5096395;28;20020;-64
2023/09/03 06:37:59;;;;;;;3.28;1.98;;;18.50;99.90;;;;;;5114637;28;20016;-64
2023/09/03 06:40:26;;;;;;;2.75;2.30;;;18.60;99.90;;;;;;5096329;28;20464;-65
2023/09/03 06:42:52;;;;;;;2.95;2.00;;;18.60;99.90;;;;;;5115081;28;20026;-64
2023/09/03 06:45:18;;;;;;;2.95;1.70;;;18.80;99.90;;;;;;5096640;28;20043;-64
2023/09/03 06:47:44;;;;;;;2.28;1.85;;;18.80;99.90;;;;;;5114631;28;20094;-65
2023/09/03 06:50:11;;;;;;;2.67;2.13;;;18.90;99.90;;;;;;5114107;28;20031;-64
2023/09/03 06:52:38;;;;;;;2.30;2.00;;;19.00;99.90;;;;;;5114215;28;20030;-62
2023/09/03 06:55:04;;;;;;;2.03;1.60;;;19.10;99.90;;;;;;5114623;28;20028;-64
2023/09/03 06:57:30;;;;;;;2.47;2.03;;;19.20;99.90;;;;;;5113955;28;20337;-63
2023/09/03 06:59:56;;;;;;;1.73;1.63;;;19.20;99.90;;;;;;5114121;28;20030;-64
2023/09/03 07:02:22;;;;;;;2.33;1.90;;;19.30;99.90;;;;;;5113937;28;20106;-64
2023/09/03 07:04:48;;;;;;;2.47;1.45;;;19.30;99.90;;;;;;5095935;28;20027;-64
2023/09/03 07:07:14;;;;;;;2.42;1.70;;;19.40;99.90;;;;;;5113643;28;20019;-64
2023/09/03 07:09:40;;;;;;;3.42;2.13;;;19.50;99.90;;;;;;5114783;28;20445;-64
2023/09/03 07:12:06;;;;;;;2.17;1.60;;;19.60;99.90;;;;;;5095860;28;20022;-64
2023/09/03 07:14:35;;;;;;;1.83;1.73;;;19.60;99.90;;;;;;5113708;28;20476;-65
2023/09/03 07:17:01;;;;;;;;;;;19.70;99.90;;;;;;5114403;28;20020;-64
2023/09/03 07:19:27;;;;;;;1.88;1.77;;;19.70;99.90;;;;;;5114227;28;20349;-66
2023/09/03 07:21:53;;;;;;;2.20;1.80;;;19.80;99.90;;;;;;5114095;28;20051;-65
2023/09/03 07:24:19;;;;;;;2.75;1.63;;;19.80;99.90;;;;;;5114881;28;20419;-65
2023/09/03 07:26:44;;;;;;;2.75;2.15;;;19.80;99.90;;;;;;5118065;28;20029;-66
2023/09/03 07:29:10;;;;;;;2.35;1.98;;;19.90;99.90;;;;;;5099857;28;20163;-64
2023/09/03 07:31:40;;;;;;;2.17;1.95;;;20.00;99.90;;;;;;5100241;28;20020;-63
2023/09/03 07:34:07;;;;;;;5.60;1.92;;;20.00;99.90;;;;;;5117873;28;20031;-63
2023/09/03 07:36:33;;;;;;;3.20;2.08;;;20.00;99.90;;;;;;5100019;28;20027;-63
2023/09/03 07:38:59;;;;;;;4.10;1.70;;;20.10;99.90;;;;;;5117978;28;20028;-63
2023/09/03 07:41:24;;;;;;;3.13;1.70;;;20.00;99.90;;;;;;5117531;28;20046;-61
2023/09/03 07:43:51;;;;;;;1.60;1.33;;;20.10;99.90;;;;;;5117553;28;20031;-63
2023/09/03 07:46:17;;;;;;;4.10;1.80;;;20.10;99.90;;;;;;5117821;28;20073;-63
2023/09/03 07:48:43;;;;;;;2.00;1.60;;;20.20;99.90;;;;;;5099014;28;20027;-63
2023/09/03 07:51:08;;;;;;;3.92;2.08;;;20.20;99.90;;;;;;5099205;28;20051;-62
2023/09/03 07:53:34;;;;;;;2.10;1.73;;;20.30;99.90;;;;;;5099252;28;20020;-63
2023/09/03 07:56:00;;;;;;;1.73;1.45;;;20.40;99.90;;;;;;5117613;28;20019;-63
2023/09/03 07:58:25;;;;;;;2.45;1.75;;;20.50;99.90;;;;;;5117555;28;20053;-63
2023/09/03 08:00:52;;;;;;;3.95;1.75;;;20.50;99.90;;;;;;5099156;28;20031;-63
2023/09/03 08:03:18;;;;;;;3.60;1.80;;;20.50;99.90;;;;;;5099307;28;20350;-63
2023/09/03 08:05:43;;;;;;;2.78;1.90;;;20.50;99.90;;;;;;5099361;28;20057;-73
2023/09/03 08:08:09;;;;;;;2.50;1.50;;;20.50;99.90;;;;;;5117709;28;20069;-72
2023/09/03 08:10:35;;;;;;;3.42;1.80;;;20.50;99.90;;;;;;5117649;28;20080;-69
2023/09/03 08:13:00;;;;;;;1.90;1.80;;;20.60;99.90;;;;;;5099122;28;20069;-76
2023/09/03 08:15:26;;;;;;;5.85;4.03;;;20.70;99.90;;;;;;5116598;28;20051;-74
2023/09/03 08:17:51;;;;;;;4.57;3.03;;;20.90;99.90;;;;;;5116901;28;20034;-67
2023/09/03 08:20:17;;;;;;;4.05;1.90;;;21.00;99.90;;;;;;5117936;28;20023;-64
2023/09/03 08:22:43;;;;;;;2.58;1.70;;;21.10;99.90;;;;;;5118050;28;20023;-65
2023/09/03 08:25:08;;;;;;;1.73;1.63;;;21.10;99.90;;;;;;5117276;28;20023;-64
2023/09/03 08:27:34;;;;;;;2.58;1.80;;;21.20;99.90;;;;;;5098779;28;20020;-63
2023/09/03 08:30:00;;;;;;;2.70;1.83;;;21.20;99.90;;;;;;5116837;28;20023;-63
2023/09/03 08:32:28;;;;;;;3.92;1.75;;;21.20;99.90;;;;;;5117066;28;20028;-65
2023/09/03 08:34:54;;;;;;;3.15;1.98;;;21.20;99.90;;;;;;5098788;28;20023;-60
2023/09/03 08:37:19;;;;;;;5.18;2.00;;;21.20;99.90;;;;;;5098665;28;20027;-61
2023/09/03 08:39:45;;;;;;;4.13;2.13;;;21.20;99.90;;;;;;5117823;28;20047;-67
2023/09/03 08:42:13;;;;;;;2.25;2.05;;;21.20;99.90;;;;;;5118155;28;20027;-65
2023/09/03 08:44:47;;;;;;;2.00;1.80;;;21.20;99.90;;;;;;5100163;28;20479;-63
2023/09/03 08:47:17;;;;;;;1.75;1.63;;;21.30;99.90;;;;;;5099033;28;20023;-59
2023/09/03 08:49:44;;;;;;;2.70;2.05;;;21.20;99.90;;;;;;5116710;28;20024;-60
2023/09/03 08:52:11;;;;;;;2.67;2.20;;;21.10;99.90;;;;;;5098473;28;20072;-61
2023/09/03 08:54:38;;;;;;;3.58;2.35;;;21.10;99.90;;;;;;5116606;28;20023;-61
2023/09/03 08:57:05;;;;;;;2.60;2.05;;;21.20;99.90;;;;;;5116407;28;20106;-58
2023/09/03 08:59:32;;;;;;;1.88;1.77;;;21.20;99.90;;;;;;5098248;28;20107;-60
2023/09/03 09:01:59;;;;;;;3.00;2.35;;;21.20;99.90;;;;;;5116671;28;20015;-60
2023/09/03 09:04:30;;;;;;;3.40;2.20;;;21.20;99.90;;;;;;5116381;28;20473;-60
2023/09/03 09:07:00;;;;;;;2.42;2.22;;;21.20;99.90;;;;;;5116323;28;20066;-60
2023/09/03 09:09:29;;;;;;;4.32;2.38;;;21.20;99.90;;;;;;5097958;28;20061;-63
2023/09/03 09:12:10;;;;;;;4.80;2.20;;;21.30;99.90;;;;;;5097388;28;20031;-61
2023/09/03 09:14:43;;;;;;;2.80;2.00;;;21.40;99.90;;;;;;5097843;28;20020;-61
2023/09/03 09:17:13;;;;;;;4.72;2.30;;;21.50;99.90;;;;;;5097844;28;20364;-62
2023/09/03 09:19:38;;;;;;;3.20;2.30;;;21.60;99.90;;;;;;5097716;28;20467;-62
2023/09/03 09:22:04;;;;;;;2.50;2.30;;;21.60;99.90;;;;;;5115783;28;20020;-62
2023/09/03 09:24:30;;;;;;;2.95;2.25;;;21.80;99.90;;;;;;5116369;28;20436;-67
2023/09/03 09:27:17;;;;;;;3.03;2.05;;;21.90;99.90;;;;;;5115971;28;20035;-65
2023/09/03 09:29:44;;;;;;;1.67;1.58;;;22.00;99.90;;;;;;5097585;28;20041;-61
2023/09/03 09:32:25;;;;;;;2.47;2.28;;;22.20;99.90;;;;;;5116022;28;20334;-62
2023/09/03 09:34:50;;;;;;;2.40;2.17;;;22.30;99.90;;;;;;5116046;28;20023;-60
2023/09/03 09:37:16;;;;;;;1.80;1.70;;;22.30;99.90;;;;;;5115917;28;20054;-60
2023/09/03 09:39:47;;;;;;;2.88;2.58;;;22.30;99.90;;;;;;5115477;28;20019;-74
2023/09/03 09:42:13;;;;;;;1.80;1.70;;;22.40;99.90;;;;;;5098016;28;20020;-68
2023/09/03 09:44:50;;;;;;;2.47;2.28;;;22.40;99.90;;;;;;5115489;28;20107;-59
2023/09/03 09:47:20;;;;;;;4.88;2.38;;;22.30;99.90;;;;;;5114689;28;20029;-66
2023/09/03 09:49:47;;;;;;;2.05;1.90;;;22.20;99.90;;;;;;5115293;28;20050;-61
2023/09/03 09:52:16;;;;;;;4.10;2.15;;;22.30;99.90;;;;;;5096642;28;20040;-58
2023/09/03 09:54:44;;;;;;;2.30;2.10;;;22.20;99.90;;;;;;5114786;28;20022;-61
2023/09/03 09:57:11;;;;;;;13.45;2.38;;;22.30;99.90;;;;;;5096930;28;20413;-60
2023/09/03 09:59:39;;;;;;;5.00;2.28;;;22.30;99.90;;;;;;5097047;28;20095;-62
2023/09/03 10:02:15;;;;;;;5.75;2.08;;;22.40;99.90;;;;;;5115462;28;20064;-63
2023/09/03 10:04:43;;;;;;;3.47;2.33;;;22.60;99.90;;;;;;5114769;28;20480;-60
2023/09/03 10:07:10;;;;;;;1.70;1.60;;;22.70;99.90;;;;;;5096901;28;20057;-60
2023/09/03 10:09:37;;;;;;;2.13;1.75;;;22.70;99.90;;;;;;5096774;28;20031;-60
2023/09/03 10:12:07;;;;;;;3.30;2.15;;;22.80;99.90;;;;;;5096943;28;20027;-58
2023/09/03 10:14:34;;;;;;;1.75;1.65;;;22.90;99.90;;;;;;5115101;28;20019;-59
2023/09/03 10:17:05;;;;;;;5.90;2.00;;;23.10;99.90;;;;;;5114892;28;20020;-61
2023/09/03 10:19:53;;;;;;;3.00;1.70;;;23.20;99.90;;;;;;5114773;28;20116;-60
2023/09/03 10:22:20;;;;;;;2.17;1.80;;;23.20;99.90;;;;;;5114541;28;20030;-60
2023/09/03 10:25:08;;;;;;;3.70;1.80;;;23.20;99.90;;;;;;5096294;28;20016;-60
2023/09/03 10:27:39;;;;;;;1.83;1.60;;;23.30;99.90;;;;;;5114678;28;20106;-60
2023/09/03 10:30:10;;;;;;;2.17;1.45;;;23.50;99.90;;;;;;5096808;28;20034;-60
2023/09/03 10:32:37;;;;;;;1.23;1.23;;;23.80;99.90;;;;;;5115542;28;20023;-59
2023/09/03 10:35:10;;;;;;;1.70;1.33;;;23.90;99.90;;;;;;5114629;28;20475;-61
2023/09/03 10:37:40;;;;;;;3.83;1.23;;;24.10;99.90;;;;;;5097229;28;20095;-57
2023/09/03 10:40:36;;;;;;;1.33;1.23;;;24.30;99.90;;;;;;5114566;28;20020;-57
2023/09/03 10:43:18;;;;;;;2.08;1.17;;;24.40;99.90;;;;;;5092992;28;20032;-58
2023/09/03 10:46:05;;;;;;;1.40;1.30;;;24.60;99.90;;;;;;5114867;28;20027;-58
2023/09/03 10:48:31;;;;;;;2.50;1.27;;;24.80;99.70;;;;;;5096062;28;20076;-57
2023/09/03 10:50:56;;;;;;;1.67;1.58;;;24.90;98.90;;;;;;5114861;28;20123;-58
2023/09/03 10:53:42;;;;;;;2.70;1.70;;;24.80;99.00;;;;;;5114533;28;20025;-58
2023/09/03 10:56:09;;;;;;;1.33;1.23;;;25.00;99.00;;;;;;5114251;28;20052;-57
2023/09/03 10:58:57;;;;;;;1.48;1.38;;;25.10;97.90;;;;;;5113899;28;20039;-57
2023/09/03 11:01:32;;;;;;;2.85;1.13;;;25.20;97.80;;;;;;5114090;28;20391;-63
2023/09/03 11:04:00;;;;;;;1.23;1.13;;;25.20;98.00;;;;;;5095850;28;20510;-62
2023/09/03 11:06:31;;;;;;;2.20;1.08;;;25.20;97.30;;;;;;5114162;28;20030;-61
2023/09/03 11:09:03;;;;;;;2.55;1.40;;;25.20;97.70;;;;;;5095866;28;20176;-62
2023/09/03 11:11:35;;;;;;;1.52;1.25;;;25.20;97.70;;;;;;5114333;28;20015;-61
2023/09/03 11:14:02;;;;;;;2.03;1.75;;;25.20;97.20;;;;;;5114175;28;20012;-62
2023/09/03 11:16:30;;;;;;;1.63;1.10;;;25.20;95.40;;;;;;5114173;28;20024;-64
2023/09/03 11:18:57;;;;;;;1.63;1.52;;;25.50;96.00;;;;;;5114454;28;20099;-62
2023/09/03 11:21:25;;;;;;;3.22;1.42;;;25.40;95.20;;;;;;5096065;28;20122;-62
2023/09/03 11:24:18;;;;;;;1.55;1.42;;;25.00;95.70;;;;;;5095662;28;20448;-62
2023/09/03 11:27:04;;;;;;;1.92;1.45;;;24.70;96.50;;;;;;5109519;28;20040;-62
2023/09/03 11:29:31;;;;;;;1.90;1.77;;;24.80;96.60;;;;;;5113949;28;20433;-60
2023/09/03 11:31:59;;;;;;;3.63;1.77;;;24.80;96.60;;;;;;5095690;28;20119;-60
2023/09/03 11:34:29;;;;;;;1.75;1.50;;;25.00;96.20;;;;;;5114335;28;20063;-61
2023/09/03 11:36:57;;;;;;;1.73;1.63;;;25.10;96.40;;;;;;5114651;28;20023;-68
2023/09/03 11:39:23;;;;;;;2.77;1.83;;;25.70;95.00;;;;;;5116408;28;20071;-60
2023/09/03 11:41:50;;;;;;;1.17;1.17;;;25.90;94.50;;;;;;5100548;28;20448;-61
2023/09/03 11:44:20;;;;;;;1.67;1.10;;;26.30;94.60;;;;;;5102626;28;20471;-61
2023/09/03 11:47:03;;;;;;;2.58;1.45;;;26.60;94.20;;;;;;5102548;28;20050;-61
2023/09/03 11:49:30;;;;;;;1.92;1.77;;;26.90;93.00;;;;;;5104586;28;20016;-61
2023/09/03 11:52:12;;;;;;;1.33;1.00;;;26.90;92.90;;;;;;5117473;28;20186;-61
2023/09/03 11:54:39;;;;;;;1.27;1.10;;;26.90;92.50;;;;;;5097208;28;20024;-61
2023/09/03 11:57:09;;;;;;;1.10;1.00;;;27.00;92.20;;;;;;5096296;28;20020;-61
2023/09/03 11:59:36;;;;;;;2.75;1.10;;;27.20;91.20;;;;;;5097196;28;20020;-63
2023/09/03 12:02:03;;;;;;;2.40;1.48;;;27.40;90.10;;;;;;5114764;28;20092;-61
2023/09/03 12:04:31;;;;;;;1.08;1.00;;;27.60;90.20;;;;;;5115943;28;20016;-61
2023/09/03 12:06:58;;;;;;;1.23;1.08;;;27.90;88.70;;;;;;5096303;28;20131;-61
2023/09/03 12:09:26;;;;;;;0.93;0.93;;;27.90;88.60;;;;;;5113811;28;20073;-65
2023/09/03 12:11:53;;;;;;;1.58;1.08;;;27.90;87.90;;;;;;5098995;28;20517;-63
2023/09/03 12:14:32;;;;;;;1.00;1.00;;;27.80;86.00;;;;;;5099551;28;20028;-62
2023/09/03 12:16:57;;;;;;;;;;;27.70;87.20;;;;;;5099552;28;20050;-61
2023/09/03 12:19:24;;;;;;;1.98;1.00;;;27.50;86.10;;;;;;5117627;28;19900;-61
2023/09/03 12:21:52;;;;;;;1.00;1.00;;;27.60;86.20;;;;;;5098951;28;20016;-60
2023/09/03 12:24:27;;;;;;;0.90;0.90;;;27.40;85.90;;;;;;5117599;28;20364;-63
2023/09/03 12:27:03;;;;;;;1.38;1.00;;;26.80;86.40;;;;;;5118148;28;20469;-62
2023/09/03 12:29:38;;;;;;;1.80;0.98;;;26.90;87.60;;;;;;5117580;28;20024;-64
2023/09/03 12:32:08;;;;;;;1.13;0.95;;;27.20;88.00;;;;;;5104101;28;20020;-63
2023/09/03 12:34:39;;;;;;;1.00;1.00;;;27.40;87.10;;;;;;5120981;28;20023;-65
2023/09/03 12:37:07;;;;;;;1.90;1.30;;;27.50;87.70;;;;;;5102050;28;20046;-65
2023/09/03 12:39:42;;;;;;;1.42;1.33;;;27.60;86.40;;;;;;5100266;28;20015;-63
2023/09/03 12:42:10;;;;;;;2.30;1.10;;;27.60;86.40;;;;;;5118838;28;20373;-65
2023/09/03 12:44:41;;;;;;;1.20;1.10;;;27.40;86.40;;;;;;5117861;28;20022;-64
2023/09/03 12:47:09;;;;;;;1.95;1.20;;;27.40;86.30;;;;;;5098173;28;20028;-63
2023/09/03 12:49:35;;;;;;;2.67;1.40;;;27.10;86.50;;;;;;5098656;28;20015;-64
2023/09/03 12:52:02;;;;;;;2.67;1.30;;;27.00;87.40;;;;;;5098262;28;20089;-63
2023/09/03 12:54:29;;;;;;;1.77;1.13;;;27.00;87.60;;;;;;5116245;28;20048;-63